LFMD/CEQ METAR and TAF weather

Enter ICAO airport designator
Station Type Date Time Source
LFMD METAR 2020/04/05 22:30 UTC NOAA

LFMD 052230Z AUTO 36004KT 330V040 CAVOK 09/04 Q1022


Station Type Date Time Source
LFMD Decoded METAR 2020/04/05 22:30 UTC NOAA

Cannes, France (LFMD) 43-33N 006-57E 9M
Apr 05, 2020 - 06:30 PM EDT / 2020.04.05 2230 UTC
Wind: from the N (360 degrees) at 5 MPH (4 KT) (direction variable):0
Visibility: greater than 7 mile(s):0
Temperature: 48 F (9 C)
Dew Point: 39 F (4 C)
Relative Humidity: 70%
Pressure (altimeter): 30.18 in. Hg (1022 hPa)
ob: LFMD 052230Z AUTO 36004KT 330V040 CAVOK 09/04 Q1022
cycle: 22

Station Type Date Time Source
LFMD TAF 2020/03/24 06:57 UTC NOAA

TAF
AMD TAF
AMD LFMD 240652Z 2406/2503 09010KT 9999 BKN050
BECMG 2418/2420 35005KT CAVOK

Example: see airport list